createdAt,value
2023-01-26T00:01:50.392Z,15.35
2023-01-26T00:04:16.989Z,17.08
2023-01-26T00:06:43.473Z,18.00
2023-01-26T00:09:12.975Z,18.40
2023-01-26T00:11:39.555Z,16.65
2023-01-26T00:14:06.042Z,16.08
2023-01-26T00:16:32.661Z,15.68
2023-01-26T00:18:59.178Z,15.70
2023-01-26T00:21:25.667Z,16.35
2023-01-26T00:23:52.481Z,16.45
2023-01-26T00:26:20.592Z,16.13
2023-01-26T00:28:47.176Z,15.75
2023-01-26T00:31:21.291Z,14.38
2023-01-26T00:33:47.796Z,15.25
2023-01-26T00:36:14.339Z,13.68
2023-01-26T00:38:41.052Z,14.30
2023-01-26T00:41:07.632Z,14.60
2023-01-26T00:43:34.182Z,13.38
2023-01-26T00:46:00.797Z,11.63
2023-01-26T00:48:27.275Z,14.02
2023-01-26T00:50:53.756Z,13.15
2023-01-26T00:53:20.306Z,14.05
2023-01-26T00:55:46.774Z,13.25
2023-01-26T00:58:13.247Z,14.20
2023-01-26T01:00:40.006Z,13.30
2023-01-26T01:03:06.982Z,14.32
2023-01-26T01:05:33.555Z,13.25
2023-01-26T01:08:00.173Z,12.50
2023-01-26T01:10:29.619Z,13.50
2023-01-26T01:12:56.613Z,12.52
2023-01-26T01:15:23.492Z,13.40
2023-01-26T01:17:50.260Z,14.07
2023-01-26T01:20:16.918Z,13.07
2023-01-26T01:22:43.515Z,13.43
2023-01-26T01:25:10.007Z,13.70
2023-01-26T01:27:36.539Z,14.55
2023-01-26T01:30:07.618Z,16.08
2023-01-26T01:32:35.936Z,16.10
2023-01-26T01:35:02.405Z,15.00
2023-01-26T01:37:29.522Z,15.82
2023-01-26T01:39:55.988Z,17.08
2023-01-26T01:42:22.575Z,15.98
2023-01-26T01:45:26.935Z,16.10
2023-01-26T01:47:54.636Z,15.45
2023-01-26T01:50:21.197Z,13.10
2023-01-26T01:52:48.024Z,11.50
2023-01-26T01:55:14.736Z,11.90
2023-01-26T01:57:46.470Z,12.35
2023-01-26T02:00:15.272Z,12.10
2023-01-26T02:02:42.917Z,12.13
2023-01-26T02:05:28.321Z,13.85
2023-01-26T02:07:54.749Z,12.02
2023-01-26T02:10:21.255Z,14.77
2023-01-26T02:12:47.940Z,14.57
2023-01-26T02:15:14.348Z,14.85
2023-01-26T02:17:40.870Z,16.20
2023-01-26T02:20:13.781Z,15.45
2023-01-26T02:22:46.171Z,13.57
2023-01-26T02:25:38.076Z,14.02
2023-01-26T02:28:04.563Z,12.85
2023-01-26T02:30:31.026Z,13.55
2023-01-26T02:32:57.503Z,14.15
2023-01-26T02:35:23.995Z,15.25
2023-01-26T02:37:50.532Z,15.07
2023-01-26T02:40:36.146Z,15.95
2023-01-26T02:43:02.611Z,15.52
2023-01-26T02:45:29.716Z,13.60
2023-01-26T02:47:57.871Z,14.63
2023-01-26T02:50:24.368Z,14.93
2023-01-26T02:52:50.861Z,14.10
2023-01-26T02:55:25.033Z,15.20
2023-01-26T02:57:59.015Z,14.95
2023-01-26T03:00:27.578Z,14.82
2023-01-26T03:02:55.635Z,15.13
2023-01-26T03:05:22.206Z,14.07
2023-01-26T03:07:48.754Z,15.43
2023-01-26T03:10:16.605Z,13.48
2023-01-26T03:12:43.103Z,14.05
2023-01-26T03:15:28.811Z,13.55
2023-01-26T03:18:29.051Z,13.90
2023-01-26T03:21:14.215Z,13.98
2023-01-26T03:23:59.200Z,13.55
2023-01-26T03:26:44.355Z,13.85
2023-01-26T03:29:10.817Z,13.63
2023-01-26T03:31:37.356Z,13.55
2023-01-26T03:34:03.909Z,13.38
2023-01-26T03:36:30.654Z,13.50
2023-01-26T03:38:57.157Z,14.27
2023-01-26T03:41:42.370Z,14.30
2023-01-26T03:44:27.396Z,14.32
2023-01-26T03:47:12.565Z,14.10
2023-01-26T03:49:57.612Z,13.40
2023-01-26T03:52:42.892Z,12.45
2023-01-26T03:55:28.078Z,12.25
2023-01-26T03:57:54.652Z,12.18
2023-01-26T04:00:21.602Z,13.38
2023-01-26T04:03:06.768Z,11.88
2023-01-26T04:05:51.889Z,13.88
2023-01-26T04:08:24.156Z,13.13
2023-01-26T04:10:51.737Z,14.20
2023-01-26T04:13:37.890Z,13.43
2023-01-26T04:16:23.817Z,14.07
2023-01-26T04:19:09.239Z,13.95
2023-01-26T04:21:36.381Z,13.02
2023-01-26T04:24:09.584Z,14.57
2023-01-26T04:26:36.708Z,13.80
2023-01-26T04:29:07.896Z,14.05
2023-01-26T04:31:34.624Z,15.32
2023-01-26T04:34:01.807Z,13.30
2023-01-26T04:36:28.363Z,13.00
2023-01-26T04:38:55.057Z,14.05
2023-01-26T04:41:21.678Z,12.75
2023-01-26T04:43:48.186Z,13.23
2023-01-26T04:46:14.871Z,13.65
2023-01-26T04:48:41.457Z,13.10
2023-01-26T04:51:11.718Z,15.52
2023-01-26T04:53:38.329Z,14.68
2023-01-26T04:56:05.169Z,15.30
2023-01-26T04:58:33.026Z,14.07
2023-01-26T05:00:59.554Z,13.18
2023-01-26T05:03:26.395Z,14.27
2023-01-26T05:05:53.935Z,13.98
2023-01-26T05:08:20.962Z,15.27
2023-01-26T05:10:47.639Z,14.25
2023-01-26T05:13:14.347Z,12.93
2023-01-26T05:15:40.935Z,13.32
2023-01-26T05:18:07.394Z,13.00
2023-01-26T05:20:33.916Z,13.38
2023-01-26T05:23:00.476Z,13.13
2023-01-26T05:25:26.972Z,11.85
2023-01-26T05:27:53.766Z,13.05
2023-01-26T05:30:20.385Z,10.73
2023-01-26T05:32:46.879Z,12.10
2023-01-26T05:35:13.368Z,12.55
2023-01-26T05:37:42.089Z,14.30
2023-01-26T05:40:10.945Z,14.57
2023-01-26T05:42:37.755Z,13.90
2023-01-26T05:45:05.184Z,13.18
2023-01-26T05:47:31.752Z,12.65
2023-01-26T05:49:58.219Z,11.93
2023-01-26T05:52:24.999Z,13.43
2023-01-26T05:54:51.528Z,12.32
2023-01-26T05:57:18.111Z,11.63
2023-01-26T05:59:44.795Z,12.35
2023-01-26T06:02:14.568Z,12.90
2023-01-26T06:04:41.062Z,11.98
2023-01-26T06:07:07.631Z,11.77
2023-01-26T06:09:37.053Z,12.55
2023-01-26T06:12:03.762Z,14.00
2023-01-26T06:14:30.261Z,14.27
2023-01-26T06:16:56.925Z,12.77
2023-01-26T06:19:23.482Z,13.60
2023-01-26T06:21:50.062Z,13.80
2023-01-26T06:24:16.685Z,13.40
2023-01-26T06:26:43.201Z,13.23
2023-01-26T06:29:09.727Z,12.90
2023-01-26T06:31:37.164Z,12.40
2023-01-26T06:34:05.648Z,14.25
2023-01-26T06:36:32.173Z,14.18
2023-01-26T06:39:00.806Z,15.60
2023-01-26T06:41:27.498Z,14.18
2023-01-26T06:43:54.387Z,10.73
2023-01-26T06:46:20.961Z,11.90
2023-01-26T06:48:47.450Z,11.38
2023-01-26T06:51:16.721Z,11.43
2023-01-26T06:53:55.957Z,9.75
2023-01-26T06:56:23.007Z,11.27
2023-01-26T06:58:49.565Z,11.70
2023-01-26T07:01:23.649Z,11.38
2023-01-26T07:03:53.552Z,12.13
2023-01-26T07:06:20.074Z,11.80
2023-01-26T07:08:46.931Z,12.68
2023-01-26T07:11:13.628Z,12.45
2023-01-26T07:13:40.394Z,10.73
2023-01-26T07:16:08.889Z,10.30
2023-01-26T07:18:35.410Z,11.20
2023-01-26T07:21:02.620Z,11.82
2023-01-26T07:23:29.196Z,11.45
2023-01-26T07:25:55.689Z,11.63
2023-01-26T07:28:22.218Z,11.50
2023-01-26T07:30:49.179Z,11.30
2023-01-26T07:33:15.759Z,10.20
2023-01-26T07:35:42.450Z,12.57
2023-01-26T07:38:08.967Z,11.00
2023-01-26T07:40:35.460Z,10.10
2023-01-26T07:43:01.969Z,10.45
2023-01-26T07:45:28.563Z,9.40
2023-01-26T07:47:55.420Z,9.63
2023-01-26T07:50:21.952Z,10.68
2023-01-26T07:52:48.939Z,11.10
2023-01-26T07:55:16.249Z,10.23
2023-01-26T07:57:42.718Z,11.20
2023-01-26T08:00:12.417Z,9.25
2023-01-26T08:02:39.121Z,9.13
2023-01-26T08:05:06.494Z,9.57
2023-01-26T08:07:33.026Z,9.48
2023-01-26T08:09:59.515Z,8.63
2023-01-26T08:12:26.102Z,9.18
2023-01-26T08:14:52.666Z,9.82
2023-01-26T08:17:19.215Z,10.43
2023-01-26T08:19:46.177Z,10.48
2023-01-26T08:22:12.737Z,9.73
2023-01-26T08:24:39.220Z,9.55
2023-01-26T08:27:05.709Z,10.50
2023-01-26T08:29:32.244Z,9.10
2023-01-26T08:31:58.792Z,8.98
2023-01-26T08:34:26.568Z,9.68
2023-01-26T08:36:53.146Z,7.85
2023-01-26T08:39:19.853Z,7.93
2023-01-26T08:41:47.021Z,7.93
2023-01-26T08:44:13.612Z,7.75
2023-01-26T08:46:40.106Z,8.30
2023-01-26T08:49:06.577Z,8.70
2023-01-26T08:51:33.150Z,8.63
2023-01-26T08:53:59.671Z,8.30
2023-01-26T08:56:26.138Z,7.95
2023-01-26T08:58:52.632Z,8.60
2023-01-26T09:01:19.265Z,8.15
2023-01-26T09:03:45.898Z,7.20
2023-01-26T09:06:14.041Z,8.15
2023-01-26T09:08:40.524Z,8.27
2023-01-26T09:11:07.447Z,8.90
2023-01-26T09:13:34.123Z,8.48
2023-01-26T09:16:03.956Z,9.18
2023-01-26T09:18:30.438Z,7.53
2023-01-26T09:21:02.899Z,9.27
2023-01-26T09:23:29.383Z,8.50
2023-01-26T09:25:55.837Z,9.73
2023-01-26T09:28:22.407Z,8.65
2023-01-26T09:30:48.976Z,8.95
2023-01-26T09:33:15.605Z,7.63
2023-01-26T09:35:42.122Z,7.90
2023-01-26T09:38:08.618Z,7.53
2023-01-26T09:40:52.809Z,8.35
2023-01-26T09:43:41.654Z,7.47
2023-01-26T09:46:33.083Z,6.93
2023-01-26T09:49:11.583Z,7.10
2023-01-26T09:51:42.655Z,6.75
2023-01-26T09:54:19.400Z,7.25
2023-01-26T09:56:45.902Z,7.53
2023-01-26T09:59:54.909Z,7.78
2023-01-26T10:02:55.329Z,7.32
2023-01-26T10:05:33.644Z,6.90
2023-01-26T10:08:00.400Z,7.00
2023-01-26T10:10:29.657Z,6.80
2023-01-26T10:12:56.125Z,7.90
2023-01-26T10:15:30.812Z,7.35
2023-01-26T10:17:59.977Z,6.93
2023-01-26T10:20:40.291Z,7.15
2023-01-26T10:23:07.758Z,6.57
2023-01-26T10:25:41.372Z,7.15
2023-01-26T10:28:19.041Z,7.57
2023-01-26T10:30:46.556Z,6.50
2023-01-26T10:33:20.224Z,7.90
2023-01-26T10:35:47.698Z,6.43
2023-01-26T10:38:47.046Z,6.15
2023-01-26T10:41:19.255Z,6.35
2023-01-26T10:43:54.658Z,6.35
2023-01-26T10:46:31.249Z,6.00
2023-01-26T10:49:17.076Z,6.22
2023-01-26T10:51:45.371Z,6.22
2023-01-26T10:54:21.242Z,6.32
2023-01-26T10:56:50.672Z,6.68
2023-01-26T10:59:43.451Z,6.88
2023-01-26T11:02:15.973Z,7.15
2023-01-26T11:05:01.842Z,7.93
2023-01-26T11:07:32.077Z,6.40
2023-01-26T11:09:58.573Z,6.35
2023-01-26T11:12:25.431Z,7.65
2023-01-26T11:15:04.244Z,7.07
2023-01-26T11:17:38.782Z,6.70
2023-01-26T11:20:33.008Z,6.32
2023-01-26T11:23:13.978Z,6.32
2023-01-26T11:26:01.866Z,7.60
2023-01-26T11:28:59.854Z,7.22
2023-01-26T11:31:46.381Z,7.25
2023-01-26T11:34:20.784Z,7.93
2023-01-26T11:36:56.407Z,7.68
2023-01-26T11:39:31.137Z,8.10
2023-01-26T11:42:30.171Z,7.00
2023-01-26T11:45:35.950Z,7.88
2023-01-26T11:48:11.433Z,7.63
2023-01-26T11:50:51.859Z,8.23
2023-01-26T11:53:40.961Z,7.05
2023-01-26T11:56:19.767Z,7.25
2023-01-26T11:59:10.232Z,8.00
2023-01-26T12:01:53.367Z,7.07
2023-01-26T12:04:21.147Z,7.82
2023-01-26T12:06:53.585Z,7.05
2023-01-26T12:09:34.791Z,7.22
2023-01-26T12:12:12.068Z,7.47
2023-01-26T12:14:50.189Z,8.48
2023-01-26T12:17:50.331Z,8.52
2023-01-26T12:20:42.780Z,7.78
2023-01-26T12:23:09.163Z,7.45
2023-01-26T12:25:45.189Z,6.55
2023-01-26T12:28:13.259Z,6.90
2023-01-26T12:30:59.689Z,7.13
2023-01-26T12:33:26.329Z,6.65
2023-01-26T12:36:16.822Z,6.68
2023-01-26T12:38:55.746Z,6.07
2023-01-26T12:41:35.410Z,6.07
2023-01-26T12:44:11.006Z,5.32
2023-01-26T12:46:39.392Z,5.45
2023-01-26T12:49:12.635Z,4.70
2023-01-26T12:51:42.352Z,5.80
2023-01-26T12:54:23.496Z,6.45
2023-01-26T12:56:52.045Z,6.68
2023-01-26T12:59:47.590Z,6.32
2023-01-26T13:02:15.173Z,5.88
2023-01-26T13:04:43.212Z,6.85
2023-01-26T13:07:38.395Z,6.72
2023-01-26T13:10:24.893Z,5.90
2023-01-26T13:13:01.824Z,9.32
2023-01-26T13:15:29.753Z,5.85
2023-01-26T13:18:05.571Z,5.53
2023-01-26T13:20:47.821Z,5.78
2023-01-26T13:23:45.893Z,5.35
2023-01-26T13:26:34.165Z,5.35
2023-01-26T13:29:33.152Z,5.15
2023-01-26T13:32:10.032Z,5.88
2023-01-26T13:34:38.787Z,5.85
2023-01-26T13:37:12.039Z,5.20
2023-01-26T13:39:39.513Z,4.82
2023-01-26T13:42:36.405Z,4.60
2023-01-26T13:45:17.090Z,4.55
2023-01-26T13:47:45.355Z,4.97
2023-01-26T13:50:31.353Z,5.10
2023-01-26T13:52:58.106Z,5.38
2023-01-26T13:55:29.853Z,4.88
2023-01-26T13:58:22.093Z,5.03
2023-01-26T14:01:07.686Z,5.13
2023-01-26T14:03:34.288Z,5.03
2023-01-26T14:06:04.480Z,4.85
2023-01-26T14:08:31.242Z,3.88
2023-01-26T14:10:57.758Z,4.28
2023-01-26T14:13:42.443Z,4.97
2023-01-26T14:16:36.635Z,4.57
2023-01-26T14:19:08.837Z,4.53
2023-01-26T14:21:55.416Z,5.22
2023-01-26T14:24:41.245Z,4.38
2023-01-26T14:27:39.613Z,4.72
2023-01-26T14:30:23.014Z,5.15
2023-01-26T14:32:49.624Z,4.70
2023-01-26T14:35:22.629Z,5.00
2023-01-26T14:37:50.482Z,5.32
2023-01-26T14:40:22.572Z,4.90
2023-01-26T14:42:50.110Z,4.60
2023-01-26T14:45:16.761Z,4.82
2023-01-26T14:47:45.209Z,5.05
2023-01-26T14:50:18.544Z,5.32
2023-01-26T14:52:45.142Z,5.50
2023-01-26T14:55:20.562Z,5.60
2023-01-26T14:57:47.057Z,5.22
2023-01-26T15:00:22.986Z,6.10
2023-01-26T15:02:49.489Z,6.63
2023-01-26T15:05:17.719Z,6.82
2023-01-26T15:08:05.166Z,6.30
2023-01-26T15:10:38.171Z,6.28
2023-01-26T15:13:10.444Z,6.95
2023-01-26T15:16:04.374Z,5.68
2023-01-26T15:18:32.439Z,5.82
2023-01-26T15:21:11.296Z,7.07
2023-01-26T15:23:41.206Z,5.50
2023-01-26T15:26:09.925Z,6.88
2023-01-26T15:28:36.584Z,6.80
2023-01-26T15:31:03.159Z,6.40
2023-01-26T15:33:49.653Z,6.80
2023-01-26T15:36:46.416Z,6.68
2023-01-26T15:39:19.837Z,6.20
2023-01-26T15:41:59.428Z,7.57
2023-01-26T15:44:25.995Z,8.05
2023-01-26T15:46:52.545Z,7.40
2023-01-26T15:49:20.090Z,7.57
2023-01-26T15:51:46.588Z,8.23
2023-01-26T15:54:14.390Z,8.00
2023-01-26T15:56:40.909Z,7.25
2023-01-26T15:59:07.406Z,7.93
2023-01-26T16:01:33.875Z,7.50
2023-01-26T16:04:00.427Z,8.45
2023-01-26T16:06:30.728Z,9.60
2023-01-26T16:08:57.308Z,7.72
2023-01-26T16:11:29.085Z,12.70
2023-01-26T16:14:03.272Z,12.52
2023-01-26T16:16:30.641Z,11.15
2023-01-26T16:18:57.111Z,9.27
2023-01-26T16:21:25.235Z,8.02
2023-01-26T16:23:51.908Z,15.40
2023-01-26T16:26:18.914Z,8.18
2023-01-26T16:28:45.596Z,10.20
2023-01-26T16:31:32.125Z,8.98
2023-01-26T16:33:59.041Z,8.10
2023-01-26T16:36:25.484Z,7.75
2023-01-26T16:38:51.975Z,7.78
2023-01-26T16:41:29.095Z,7.22
2023-01-26T16:43:59.223Z,7.20
2023-01-26T16:46:26.198Z,7.03
2023-01-26T16:48:52.648Z,9.60
2023-01-26T16:51:22.988Z,6.97
2023-01-26T16:53:49.532Z,8.00
2023-01-26T16:56:16.930Z,6.85
2023-01-26T16:58:43.581Z,7.88
2023-01-26T17:01:20.363Z,6.75
2023-01-26T17:03:47.956Z,8.35
2023-01-26T17:06:14.873Z,8.18
2023-01-26T17:08:41.413Z,7.45
2023-01-26T17:11:19.688Z,8.23
2023-01-26T17:13:46.732Z,7.78
2023-01-26T17:16:25.393Z,7.53
2023-01-26T17:18:52.121Z,8.30
2023-01-26T17:21:19.158Z,8.35
2023-01-26T17:23:51.987Z,12.52
2023-01-26T17:28:46.036Z,9.02
2023-01-26T17:31:17.332Z,7.70
2023-01-26T17:33:44.789Z,8.63
2023-01-26T17:36:11.276Z,6.93
2023-01-26T17:38:38.178Z,6.47
2023-01-26T17:41:05.076Z,7.05
2023-01-26T17:43:31.528Z,6.97
2023-01-26T17:46:05.252Z,6.72
2023-01-26T17:48:31.784Z,6.78
2023-01-26T17:50:58.266Z,7.18
2023-01-26T17:53:24.807Z,12.00
2023-01-26T17:55:54.449Z,7.05
2023-01-26T17:58:20.853Z,6.90
2023-01-26T18:00:47.362Z,7.43
2023-01-26T18:03:13.836Z,8.05
2023-01-26T18:05:40.312Z,7.00
2023-01-26T18:08:06.764Z,9.05
2023-01-26T18:10:33.283Z,7.38
2023-01-26T18:12:59.719Z,8.90
2023-01-26T18:15:26.215Z,8.60
2023-01-26T18:17:52.701Z,7.97
2023-01-26T18:20:19.164Z,8.43
2023-01-26T18:22:46.075Z,8.75
2023-01-26T18:25:12.730Z,8.70
2023-01-26T18:27:39.403Z,8.13
2023-01-26T18:30:06.479Z,8.80
2023-01-26T18:32:33.015Z,7.15
2023-01-26T18:34:59.464Z,8.68
2023-01-26T18:37:26.075Z,7.45
2023-01-26T18:39:52.528Z,9.80
2023-01-26T18:42:19.039Z,8.60
2023-01-26T18:44:46.062Z,7.70
2023-01-26T18:47:12.874Z,8.48
2023-01-26T18:49:39.365Z,8.48
2023-01-26T18:52:05.855Z,8.52
2023-01-26T18:54:32.267Z,7.80
2023-01-26T18:56:58.779Z,7.38
2023-01-26T18:59:25.323Z,7.30
2023-01-26T19:01:51.794Z,7.97
2023-01-26T19:04:18.579Z,7.80
2023-01-26T19:06:45.303Z,7.75
2023-01-26T19:09:11.754Z,8.38
2023-01-26T19:11:38.487Z,12.57
2023-01-26T19:14:05.824Z,8.27
2023-01-26T19:16:32.563Z,9.20
2023-01-26T19:18:59.223Z,9.60
2023-01-26T19:21:27.506Z,10.07
2023-01-26T19:23:55.138Z,9.95
2023-01-26T19:26:23.153Z,9.93
2023-01-26T19:28:51.050Z,9.98
2023-01-26T19:31:19.307Z,9.57
2023-01-26T19:33:57.305Z,9.40
2023-01-26T19:36:24.355Z,9.63
2023-01-26T19:38:50.976Z,8.05
2023-01-26T19:41:18.100Z,9.77
2023-01-26T19:43:44.705Z,11.35
2023-01-26T19:46:12.050Z,13.10
2023-01-26T19:48:38.682Z,12.68
2023-01-26T19:51:08.171Z,9.95
2023-01-26T19:53:36.228Z,10.63
2023-01-26T19:56:13.374Z,10.63
2023-01-26T19:58:39.865Z,10.48
2023-01-26T20:01:08.393Z,10.80
2023-01-26T20:03:35.387Z,11.20
2023-01-26T20:06:02.134Z,11.80
2023-01-26T20:08:29.045Z,12.20
2023-01-26T20:11:02.423Z,12.38
2023-01-26T20:13:28.885Z,12.57
2023-01-26T20:15:55.593Z,11.82
2023-01-26T20:18:22.127Z,11.77
2023-01-26T20:20:50.265Z,13.27
2023-01-26T20:23:16.807Z,13.73
2023-01-26T20:25:43.563Z,14.35
2023-01-26T20:28:10.136Z,13.60
2023-01-26T20:30:36.879Z,15.55
2023-01-26T20:33:03.446Z,14.07
2023-01-26T20:35:29.942Z,11.52
2023-01-26T20:37:56.728Z,11.70
2023-01-26T20:40:23.259Z,13.10
2023-01-26T20:42:49.984Z,11.63
2023-01-26T20:45:16.576Z,12.13
2023-01-26T20:47:43.751Z,14.82
2023-01-26T20:50:13.554Z,13.88
2023-01-26T20:52:42.159Z,12.48
2023-01-26T20:55:12.072Z,13.43
2023-01-26T20:57:38.631Z,12.95
2023-01-26T21:00:07.210Z,12.85
2023-01-26T21:02:33.772Z,11.98
2023-01-26T21:05:00.790Z,12.50
2023-01-26T21:07:28.561Z,11.88
2023-01-26T21:09:55.123Z,12.35
2023-01-26T21:12:21.619Z,12.88
2023-01-26T21:14:48.413Z,11.43
2023-01-26T21:17:16.414Z,11.82
2023-01-26T21:19:42.919Z,12.20
2023-01-26T21:22:09.419Z,12.57
2023-01-26T21:24:35.917Z,12.52
2023-01-26T21:27:02.743Z,12.45
2023-01-26T21:29:29.259Z,13.65
2023-01-26T21:31:55.880Z,13.55
2023-01-26T21:34:22.413Z,12.07
2023-01-26T21:36:48.966Z,12.70
2023-01-26T21:39:15.511Z,13.75
2023-01-26T21:41:57.274Z,11.88
2023-01-26T21:44:53.620Z,11.88
2023-01-26T21:47:20.109Z,12.25
2023-01-26T21:49:47.679Z,11.50
2023-01-26T21:52:32.644Z,12.05
2023-01-26T21:54:59.126Z,12.48
2023-01-26T21:57:44.421Z,13.48
2023-01-26T22:00:11.650Z,11.55
2023-01-26T22:02:38.412Z,11.98
2023-01-26T22:05:05.265Z,12.65
2023-01-26T22:07:32.141Z,11.38
2023-01-26T22:09:58.704Z,11.27
2023-01-26T22:12:25.213Z,11.23
2023-01-26T22:14:52.237Z,10.93
2023-01-26T22:17:18.745Z,11.68
2023-01-26T22:19:45.439Z,11.45
2023-01-26T22:22:12.571Z,12.57
2023-01-26T22:24:39.094Z,11.15
2023-01-26T22:27:08.285Z,10.32
2023-01-26T22:29:34.882Z,11.30
2023-01-26T22:32:02.589Z,11.73
2023-01-26T22:34:29.207Z,13.38
2023-01-26T22:36:55.692Z,11.50
2023-01-26T22:39:22.190Z,12.05
2023-01-26T22:41:48.732Z,12.82
2023-01-26T22:44:15.239Z,12.07
2023-01-26T22:46:41.715Z,11.55
2023-01-26T22:49:09.494Z,12.30
2023-01-26T22:51:37.335Z,12.35
2023-01-26T22:54:04.390Z,11.73
2023-01-26T22:56:30.995Z,11.90
2023-01-26T22:59:00.060Z,12.45
2023-01-26T23:01:31.630Z,11.13
2023-01-26T23:03:58.209Z,11.45
2023-01-26T23:06:25.005Z,12.18
2023-01-26T23:08:52.053Z,10.95
2023-01-26T23:11:20.839Z,11.57
2023-01-26T23:13:47.954Z,13.13
2023-01-26T23:16:14.640Z,12.98
2023-01-26T23:18:41.220Z,13.73
2023-01-26T23:21:07.911Z,12.82
2023-01-26T23:23:34.544Z,12.00
2023-01-26T23:26:01.109Z,11.98
2023-01-26T23:28:32.917Z,12.57
2023-01-26T23:30:59.812Z,14.23
2023-01-26T23:33:27.139Z,13.27
2023-01-26T23:35:53.679Z,13.25
2023-01-26T23:38:20.834Z,13.88
2023-01-26T23:40:48.247Z,13.43
2023-01-26T23:43:17.244Z,13.82
2023-01-26T23:45:45.019Z,13.88
2023-01-26T23:48:11.660Z,13.45
2023-01-26T23:50:38.270Z,14.63
2023-01-26T23:53:05.297Z,12.30
2023-01-26T23:55:31.832Z,12.27
2023-01-26T23:57:58.313Z,13.23
